createdAt,value
2022-09-30T00:01:09.545Z,58.23
2022-09-30T00:03:39.411Z,57.92
2022-09-30T00:06:08.681Z,57.42
2022-09-30T00:08:37.945Z,57.76
2022-09-30T00:11:08.207Z,57.29
2022-09-30T00:13:37.045Z,57.92
2022-09-30T00:16:05.037Z,57.54
2022-09-30T00:18:32.346Z,57.29
2022-09-30T00:20:59.920Z,58.93
2022-09-30T00:23:26.757Z,59.15
2022-09-30T00:26:02.391Z,58.11
2022-09-30T00:28:30.593Z,57.21
2022-09-30T00:31:01.991Z,56.82
2022-09-30T00:33:29.372Z,56.73
2022-09-30T00:35:56.186Z,58.40
2022-09-30T00:38:23.404Z,58.23
2022-09-30T00:40:51.614Z,57.30
2022-09-30T00:43:21.527Z,58.11
2022-09-30T00:45:56.844Z,57.62
2022-09-30T00:48:35.560Z,56.67
2022-09-30T00:51:03.671Z,56.56
2022-09-30T00:53:35.601Z,56.36
2022-09-30T00:56:07.836Z,56.74
2022-09-30T00:58:44.007Z,57.03
2022-09-30T01:01:11.733Z,56.77
2022-09-30T01:03:45.306Z,56.75
2022-09-30T01:06:12.432Z,57.24
2022-09-30T01:08:40.417Z,57.03
2022-09-30T01:11:08.392Z,57.16
2022-09-30T01:13:39.280Z,57.93
2022-09-30T01:16:15.986Z,58.88
2022-09-30T01:19:16.924Z,57.82
2022-09-30T01:22:03.238Z,57.19
2022-09-30T01:24:48.606Z,58.97
2022-09-30T01:27:39.527Z,57.98
2022-09-30T01:30:15.184Z,57.80
2022-09-30T01:33:03.966Z,58.36
2022-09-30T01:35:58.989Z,57.72
2022-09-30T01:38:36.413Z,58.90
2022-09-30T01:41:17.016Z,58.95
2022-09-30T01:44:10.290Z,57.18
2022-09-30T01:46:38.549Z,57.04
2022-09-30T01:49:20.548Z,57.64
2022-09-30T01:52:33.502Z,57.87
2022-09-30T01:55:17.913Z,57.23
2022-09-30T01:58:07.274Z,57.77
2022-09-30T02:00:39.871Z,57.29
2022-09-30T02:03:19.080Z,57.47
2022-09-30T02:05:56.059Z,56.96
2022-09-30T02:08:52.190Z,56.69
2022-09-30T02:11:32.777Z,56.58
2022-09-30T02:13:59.604Z,56.61
2022-09-30T02:16:32.548Z,57.68
2022-09-30T02:19:23.333Z,57.05
2022-09-30T02:22:03.768Z,57.87
2022-09-30T02:24:39.325Z,57.24
2022-09-30T02:27:14.704Z,57.10
2022-09-30T02:29:49.743Z,57.15
2022-09-30T02:32:40.906Z,56.69
2022-09-30T02:35:12.170Z,56.79
2022-09-30T02:37:48.269Z,56.75
2022-09-30T02:40:42.256Z,57.08
2022-09-30T02:43:10.468Z,56.77
2022-09-30T02:45:44.307Z,56.67
2022-09-30T02:48:19.230Z,56.73
2022-09-30T02:50:46.023Z,57.06
2022-09-30T02:53:29.447Z,58.36
2022-09-30T02:56:17.321Z,57.65
2022-09-30T02:58:46.029Z,57.47
2022-09-30T03:01:15.608Z,57.36
2022-09-30T03:03:47.819Z,56.79
2022-09-30T03:06:15.244Z,57.27
2022-09-30T03:08:42.572Z,56.91
2022-09-30T03:11:19.535Z,56.60
2022-09-30T03:13:52.178Z,56.71
2022-09-30T03:16:31.020Z,56.99
2022-09-30T03:19:23.189Z,56.33
2022-09-30T03:22:06.241Z,56.70
2022-09-30T03:24:52.161Z,57.38
2022-09-30T03:27:24.855Z,56.78
2022-09-30T03:29:57.447Z,57.40
2022-09-30T03:32:42.350Z,56.79
2022-09-30T03:35:27.518Z,57.13
2022-09-30T03:38:33.588Z,57.37
2022-09-30T03:41:12.203Z,57.04
2022-09-30T03:44:06.955Z,57.39
2022-09-30T03:46:42.075Z,57.25
2022-09-30T03:49:13.715Z,57.83
2022-09-30T03:51:41.864Z,57.23
2022-09-30T03:54:11.429Z,57.45
2022-09-30T03:56:43.336Z,58.15
2022-09-30T03:59:26.064Z,57.76
2022-09-30T04:01:53.793Z,57.38
2022-09-30T04:04:21.023Z,57.03
2022-09-30T04:06:48.103Z,57.16
2022-09-30T04:09:15.148Z,57.06
2022-09-30T04:11:42.797Z,56.58
2022-09-30T04:14:09.737Z,57.62
2022-09-30T04:16:36.762Z,57.75
2022-09-30T04:19:03.852Z,57.13
2022-09-30T04:21:31.050Z,57.19
2022-09-30T04:23:57.814Z,57.03
2022-09-30T04:26:24.742Z,59.77
2022-09-30T04:28:52.578Z,58.59
2022-09-30T04:31:20.725Z,60.11
2022-09-30T04:33:47.720Z,59.71
2022-09-30T04:36:14.776Z,59.70
2022-09-30T04:38:41.759Z,59.45
2022-09-30T04:41:14.072Z,58.99
2022-09-30T04:43:45.112Z,58.82
2022-09-30T04:46:12.651Z,59.52
2022-09-30T04:48:39.479Z,57.68
2022-09-30T04:51:06.535Z,59.28
2022-09-30T04:53:34.377Z,58.10
2022-09-30T04:56:01.772Z,61.04
2022-09-30T04:58:33.374Z,58.92
2022-09-30T05:01:06.037Z,57.82
2022-09-30T05:03:34.253Z,58.15
2022-09-30T05:06:01.568Z,57.56
2022-09-30T05:08:28.355Z,57.39
2022-09-30T05:11:00.661Z,57.35
2022-09-30T05:13:32.973Z,57.80
2022-09-30T05:16:00.418Z,58.00
2022-09-30T05:18:27.387Z,57.04
2022-09-30T05:20:55.531Z,58.21
2022-09-30T05:23:22.305Z,58.21
2022-09-30T05:25:49.062Z,57.88
2022-09-30T05:28:16.137Z,58.42
2022-09-30T05:30:43.650Z,58.38
2022-09-30T05:33:12.163Z,57.67
2022-09-30T05:35:43.075Z,57.96
2022-09-30T05:38:11.020Z,57.93
2022-09-30T05:40:40.941Z,57.39
2022-09-30T05:43:07.852Z,56.70
2022-09-30T05:45:34.877Z,56.10
2022-09-30T05:48:02.627Z,55.54
2022-09-30T05:50:29.542Z,56.21
2022-09-30T05:52:57.497Z,57.23
2022-09-30T05:55:24.771Z,57.06
2022-09-30T05:57:52.900Z,57.13
2022-09-30T06:00:20.548Z,57.28
2022-09-30T06:02:52.023Z,58.12
2022-09-30T06:05:19.050Z,57.51
2022-09-30T06:07:45.968Z,57.21
2022-09-30T06:10:12.952Z,57.56
2022-09-30T06:12:39.894Z,57.90
2022-09-30T06:15:07.206Z,57.17
2022-09-30T06:17:34.683Z,56.89
2022-09-30T06:20:02.427Z,57.63
2022-09-30T06:22:29.236Z,57.89
2022-09-30T06:24:57.267Z,57.11
2022-09-30T06:27:25.211Z,57.60
2022-09-30T06:29:51.998Z,58.19
2022-09-30T06:32:18.936Z,58.28
2022-09-30T06:34:45.865Z,57.70
2022-09-30T06:37:13.836Z,56.85
2022-09-30T06:39:41.782Z,57.71
2022-09-30T06:42:10.178Z,58.39
2022-09-30T06:44:49.195Z,56.83
2022-09-30T06:47:25.114Z,56.46
2022-09-30T06:49:53.248Z,57.72
2022-09-30T06:52:20.279Z,57.90
2022-09-30T06:54:49.770Z,57.85
2022-09-30T06:57:22.346Z,57.74
2022-09-30T06:59:50.031Z,57.19
2022-09-30T07:02:17.323Z,56.83
2022-09-30T07:04:44.131Z,61.04
2022-09-30T07:07:11.256Z,61.87
2022-09-30T07:09:38.564Z,60.63
2022-09-30T07:12:07.409Z,58.04
2022-09-30T07:14:35.942Z,56.60
2022-09-30T07:17:04.677Z,56.83
2022-09-30T07:19:34.206Z,56.53
2022-09-30T07:22:21.800Z,56.08
2022-09-30T07:24:49.517Z,56.15
2022-09-30T07:27:16.547Z,55.42
2022-09-30T07:30:07.788Z,54.23
2022-09-30T07:32:32.036Z,56.66
2022-09-30T07:34:58.843Z,60.59
2022-09-30T07:37:26.375Z,57.50
2022-09-30T07:39:54.140Z,55.71
2022-09-30T07:42:22.961Z,56.63
2022-09-30T07:44:52.150Z,57.34
2022-09-30T07:47:20.315Z,55.25
2022-09-30T07:49:47.776Z,56.70
2022-09-30T07:52:15.037Z,58.12
2022-09-30T07:54:48.053Z,59.45
2022-09-30T07:57:15.226Z,56.70
2022-09-30T07:59:42.273Z,59.63
2022-09-30T08:02:14.982Z,57.80
2022-09-30T08:04:44.242Z,56.10
2022-09-30T08:07:12.734Z,54.12
2022-09-30T08:09:39.715Z,55.39
2022-09-30T08:12:06.593Z,55.12
2022-09-30T08:14:33.826Z,55.08
2022-09-30T08:17:01.461Z,54.75
2022-09-30T08:19:30.182Z,54.33
2022-09-30T08:21:57.720Z,51.72
2022-09-30T08:24:26.751Z,50.15
2022-09-30T08:26:54.521Z,49.62
2022-09-30T08:29:42.749Z,49.24
2022-09-30T08:32:08.990Z,51.80
2022-09-30T08:34:36.084Z,50.37
2022-09-30T08:37:08.632Z,49.19
2022-09-30T08:39:37.917Z,48.78
2022-09-30T08:42:49.684Z,48.63
2022-09-30T08:46:05.775Z,48.50
2022-09-30T08:48:45.547Z,47.11
2022-09-30T08:51:30.667Z,47.00
2022-09-30T08:54:00.457Z,49.72
2022-09-30T08:56:30.733Z,48.67
2022-09-30T08:59:15.997Z,48.69
2022-09-30T09:01:49.801Z,46.38
2022-09-30T09:04:18.444Z,46.05
2022-09-30T09:06:58.619Z,47.86
2022-09-30T09:09:58.930Z,46.64
2022-09-30T09:13:05.432Z,47.13
2022-09-30T09:15:38.551Z,46.87
2022-09-30T09:18:25.832Z,44.67
2022-09-30T09:20:58.134Z,43.85
2022-09-30T09:23:31.277Z,44.48
2022-09-30T09:25:58.815Z,44.94
2022-09-30T09:28:29.429Z,44.68
2022-09-30T09:30:58.968Z,43.87
2022-09-30T09:33:30.861Z,43.09
2022-09-30T09:36:13.888Z,42.39
2022-09-30T09:39:05.358Z,40.60
2022-09-30T09:41:47.093Z,42.06
2022-09-30T09:44:34.036Z,40.26
2022-09-30T09:47:17.390Z,40.66
2022-09-30T09:49:57.656Z,40.04
2022-09-30T09:52:37.071Z,41.35
2022-09-30T09:55:04.149Z,39.20
2022-09-30T09:57:33.765Z,39.15
2022-09-30T10:00:24.879Z,40.25
2022-09-30T10:03:12.303Z,39.58
2022-09-30T10:05:39.982Z,39.38
2022-09-30T10:08:09.847Z,39.69
2022-09-30T10:10:49.680Z,39.86
2022-09-30T10:13:18.944Z,39.21
2022-09-30T10:15:46.777Z,36.09
2022-09-30T10:18:24.056Z,37.66
2022-09-30T10:20:54.585Z,37.82
2022-09-30T10:23:40.530Z,36.05
2022-09-30T10:26:19.006Z,37.38
2022-09-30T10:28:55.038Z,39.11
2022-09-30T10:31:21.911Z,38.05
2022-09-30T10:33:59.884Z,37.42
2022-09-30T10:36:36.563Z,36.78
2022-09-30T10:39:25.206Z,36.59
2022-09-30T10:42:11.191Z,36.83
2022-09-30T10:45:04.482Z,35.82
2022-09-30T10:47:36.575Z,35.08
2022-09-30T10:50:13.172Z,35.18
2022-09-30T10:52:50.378Z,34.78
2022-09-30T10:55:20.063Z,34.51
2022-09-30T10:57:50.060Z,33.18
2022-09-30T11:00:22.079Z,32.32
2022-09-30T11:03:00.118Z,34.50
2022-09-30T11:05:36.005Z,32.33
2022-09-30T11:08:14.405Z,29.66
2022-09-30T11:11:08.836Z,33.06
2022-09-30T11:14:07.418Z,31.40
2022-09-30T11:17:08.652Z,32.97
2022-09-30T11:19:48.582Z,32.07
2022-09-30T11:22:24.073Z,29.50
2022-09-30T11:24:53.503Z,30.46
2022-09-30T11:27:35.081Z,29.67
2022-09-30T11:30:10.774Z,30.50
2022-09-30T11:32:49.591Z,28.54
2022-09-30T11:35:47.226Z,27.32
2022-09-30T11:38:44.296Z,27.01
2022-09-30T11:41:19.851Z,27.36
2022-09-30T11:44:19.410Z,28.75
2022-09-30T11:47:03.239Z,26.76
2022-09-30T11:50:05.982Z,27.81
2022-09-30T11:52:35.646Z,26.34
2022-09-30T11:55:15.528Z,27.50
2022-09-30T11:58:12.014Z,25.04
2022-09-30T12:00:49.748Z,24.44
2022-09-30T12:03:27.244Z,25.15
2022-09-30T12:06:10.413Z,24.50
2022-09-30T12:08:58.044Z,24.30
2022-09-30T12:11:32.595Z,24.57
2022-09-30T12:14:05.492Z,25.01
2022-09-30T12:16:34.694Z,24.89
2022-09-30T12:19:39.995Z,24.79
2022-09-30T12:22:14.362Z,24.58
2022-09-30T12:24:44.871Z,25.19
2022-09-30T12:27:42.900Z,24.44
2022-09-30T12:30:20.452Z,25.53
2022-09-30T12:33:29.816Z,25.39
2022-09-30T12:36:27.529Z,25.85
2022-09-30T12:39:15.949Z,25.12
2022-09-30T12:41:57.991Z,25.34
2022-09-30T12:44:34.051Z,25.15
2022-09-30T12:47:06.715Z,24.91
2022-09-30T12:49:37.580Z,24.57
2022-09-30T12:52:12.491Z,25.04
2022-09-30T12:54:47.690Z,25.11
2022-09-30T12:57:21.255Z,24.42
2022-09-30T12:59:53.768Z,25.04
2022-09-30T13:02:42.225Z,24.50
2022-09-30T13:05:27.200Z,24.43
2022-09-30T13:08:06.291Z,23.46
2022-09-30T13:10:34.624Z,23.33
2022-09-30T13:13:10.381Z,23.76
2022-09-30T13:15:37.411Z,24.28
2022-09-30T13:18:26.879Z,24.27
2022-09-30T13:21:06.737Z,23.53
2022-09-30T13:23:56.639Z,23.07
2022-09-30T13:26:26.378Z,22.92
2022-09-30T13:29:19.691Z,23.40
2022-09-30T13:31:49.592Z,22.85
2022-09-30T13:34:24.836Z,22.93
2022-09-30T13:36:51.638Z,22.64
2022-09-30T13:39:27.555Z,21.83
2022-09-30T13:42:32.895Z,22.41
2022-09-30T13:45:04.621Z,21.40
2022-09-30T13:47:44.656Z,21.20
2022-09-30T13:50:34.159Z,20.95
2022-09-30T13:53:05.702Z,20.87
2022-09-30T13:55:41.572Z,20.78
2022-09-30T13:58:30.919Z,21.33
2022-09-30T14:01:26.197Z,21.40
2022-09-30T14:04:34.784Z,21.48
2022-09-30T14:07:26.199Z,22.24
2022-09-30T14:10:20.221Z,21.92
2022-09-30T14:13:05.912Z,22.18
2022-09-30T14:16:06.425Z,21.52
2022-09-30T14:18:52.010Z,22.34
2022-09-30T14:21:59.123Z,22.40
2022-09-30T14:24:37.381Z,22.80
2022-09-30T14:27:31.619Z,22.98
2022-09-30T14:30:19.417Z,22.95
2022-09-30T14:32:58.465Z,23.05
2022-09-30T14:38:23.256Z,23.12
2022-09-30T14:40:53.181Z,22.71
2022-09-30T14:43:24.236Z,22.78
2022-09-30T14:45:55.591Z,22.95
2022-09-30T14:48:29.465Z,22.75
2022-09-30T14:51:08.220Z,22.98
2022-09-30T14:53:39.291Z,22.46
2022-09-30T14:56:23.586Z,23.31
2022-09-30T14:58:52.939Z,24.40
2022-09-30T15:01:25.877Z,24.34
2022-09-30T15:03:56.910Z,25.17
2022-09-30T15:06:28.374Z,25.42
2022-09-30T15:09:05.065Z,26.29
2022-09-30T15:11:39.359Z,26.06
2022-09-30T15:14:15.058Z,25.84
2022-09-30T15:16:50.556Z,25.79
2022-09-30T15:19:28.901Z,26.32
2022-09-30T15:22:02.296Z,25.70
2022-09-30T15:24:32.707Z,25.89
2022-09-30T15:27:01.208Z,26.32
2022-09-30T15:29:28.546Z,26.38
2022-09-30T15:32:18.540Z,26.64
2022-09-30T15:34:46.006Z,26.90
2022-09-30T15:37:23.105Z,26.58
2022-09-30T15:40:09.811Z,26.54
2022-09-30T15:42:44.019Z,26.49
2022-09-30T15:45:18.086Z,26.38
2022-09-30T15:47:57.975Z,27.05
2022-09-30T15:50:42.544Z,26.86
2022-09-30T15:53:24.211Z,27.16
2022-09-30T15:56:18.946Z,27.11
2022-09-30T15:59:02.117Z,26.86
2022-09-30T16:01:36.032Z,27.47
2022-09-30T16:04:10.882Z,27.93
2022-09-30T16:06:46.480Z,27.40
2022-09-30T16:09:20.318Z,28.18
2022-09-30T16:11:59.275Z,28.23
2022-09-30T16:14:54.292Z,28.61
2022-09-30T16:17:48.558Z,28.43
2022-09-30T16:20:15.489Z,27.94
2022-09-30T16:22:42.253Z,27.86
2022-09-30T16:25:28.025Z,27.58
2022-09-30T16:28:14.787Z,27.88
2022-09-30T16:30:44.684Z,27.79
2022-09-30T16:33:13.980Z,27.92
2022-09-30T16:35:45.307Z,28.53
2022-09-30T16:38:14.475Z,28.41
2022-09-30T16:40:41.560Z,28.29
2022-09-30T16:43:11.757Z,28.27
2022-09-30T16:45:44.013Z,29.63
2022-09-30T16:48:21.553Z,28.76
2022-09-30T16:51:03.716Z,29.01
2022-09-30T16:53:30.823Z,28.89
2022-09-30T16:55:57.572Z,29.18
2022-09-30T16:58:24.596Z,29.92
2022-09-30T17:00:51.740Z,29.96
2022-09-30T17:03:21.570Z,29.87
2022-09-30T17:05:53.200Z,30.17
2022-09-30T17:08:21.248Z,30.33
2022-09-30T17:10:50.149Z,31.70
2022-09-30T17:13:18.631Z,30.77
2022-09-30T17:15:51.862Z,30.56
2022-09-30T17:18:19.664Z,30.55
2022-09-30T17:20:52.722Z,29.96
2022-09-30T17:23:21.425Z,29.99
2022-09-30T17:25:49.407Z,30.28
2022-09-30T17:28:17.024Z,29.22
2022-09-30T17:30:46.779Z,29.21
2022-09-30T17:33:14.396Z,29.94
2022-09-30T17:35:41.496Z,29.94
2022-09-30T17:38:10.190Z,29.10
2022-09-30T17:40:55.744Z,31.16
2022-09-30T17:43:22.857Z,30.37
2022-09-30T17:45:55.665Z,30.56
2022-09-30T17:48:22.579Z,30.83
2022-09-30T17:50:49.425Z,31.18
2022-09-30T17:53:18.105Z,31.76
2022-09-30T17:55:49.985Z,32.61
2022-09-30T17:58:17.977Z,31.97
2022-09-30T18:00:46.837Z,32.35
2022-09-30T18:03:13.992Z,32.12
2022-09-30T18:05:40.847Z,32.12
2022-09-30T18:08:07.719Z,32.98
2022-09-30T18:10:37.113Z,32.91
2022-09-30T18:13:04.167Z,32.74
2022-09-30T18:15:31.157Z,32.75
2022-09-30T18:17:58.204Z,33.22
2022-09-30T18:20:25.710Z,33.53
2022-09-30T18:22:52.932Z,34.19
2022-09-30T18:25:20.042Z,35.09
2022-09-30T18:27:48.761Z,34.63
2022-09-30T18:30:15.798Z,34.52
2022-09-30T18:32:42.832Z,34.99
2022-09-30T18:35:13.158Z,34.99
2022-09-30T18:37:42.359Z,34.61
2022-09-30T18:40:09.874Z,35.34
2022-09-30T18:42:38.101Z,34.79
2022-09-30T18:45:06.064Z,35.06
2022-09-30T18:47:33.076Z,35.81
2022-09-30T18:49:59.850Z,35.55
2022-09-30T18:52:26.927Z,35.35
2022-09-30T18:54:54.369Z,36.24
2022-09-30T18:57:21.096Z,36.19
2022-09-30T18:59:47.999Z,35.93
2022-09-30T19:02:18.253Z,36.13
2022-09-30T19:04:46.620Z,36.46
2022-09-30T19:07:13.366Z,36.00
2022-09-30T19:09:41.285Z,36.69
2022-09-30T19:12:08.029Z,35.76
2022-09-30T19:14:36.745Z,35.94
2022-09-30T19:17:04.215Z,37.38
2022-09-30T19:19:32.368Z,37.32
2022-09-30T19:22:01.319Z,36.79
2022-09-30T19:24:28.202Z,37.28
2022-09-30T19:26:54.878Z,38.13
2022-09-30T19:29:22.327Z,37.45
2022-09-30T19:31:51.473Z,37.50
2022-09-30T19:34:29.924Z,36.92
2022-09-30T19:36:59.818Z,37.04
2022-09-30T19:39:36.719Z,36.48
2022-09-30T19:42:06.597Z,37.78
2022-09-30T19:44:35.876Z,37.46
2022-09-30T19:47:02.780Z,37.79
2022-09-30T19:49:30.800Z,37.28
2022-09-30T19:51:57.632Z,37.25
2022-09-30T19:54:37.574Z,38.39
2022-09-30T19:57:07.265Z,38.00
2022-09-30T19:59:34.145Z,37.83
2022-09-30T20:02:01.325Z,37.95
2022-09-30T20:04:29.584Z,38.55
2022-09-30T20:06:56.492Z,39.20
2022-09-30T20:09:24.251Z,39.29
2022-09-30T20:11:51.544Z,38.87
2022-09-30T20:14:36.815Z,40.71
2022-09-30T20:17:03.828Z,39.88
2022-09-30T20:19:31.614Z,40.35
2022-09-30T20:21:58.533Z,40.11
2022-09-30T20:24:26.168Z,39.58
2022-09-30T20:26:53.025Z,39.46
2022-09-30T20:29:22.586Z,39.58
2022-09-30T20:31:50.669Z,40.03
2022-09-30T20:34:18.949Z,41.13
2022-09-30T20:36:45.800Z,40.89
2022-09-30T20:39:12.951Z,40.84
2022-09-30T20:41:46.135Z,40.45
2022-09-30T20:44:13.715Z,40.82
2022-09-30T20:46:41.964Z,42.94
2022-09-30T20:49:09.566Z,44.65
2022-09-30T20:51:36.510Z,43.29
2022-09-30T20:54:03.609Z,42.28
2022-09-30T20:56:44.479Z,42.05
2022-09-30T20:59:17.924Z,42.50
2022-09-30T21:01:44.728Z,41.80
2022-09-30T21:04:12.877Z,41.10
2022-09-30T21:06:39.681Z,40.83
2022-09-30T21:09:11.401Z,40.41
2022-09-30T21:11:42.507Z,41.52
2022-09-30T21:14:09.496Z,40.94
2022-09-30T21:16:36.254Z,41.20
2022-09-30T21:19:03.259Z,40.39
2022-09-30T21:21:30.153Z,40.84
2022-09-30T21:23:58.721Z,40.79
2022-09-30T21:26:28.204Z,40.97
2022-09-30T21:28:55.125Z,40.70
2022-09-30T21:31:29.200Z,40.94
2022-09-30T21:34:00.840Z,41.35
2022-09-30T21:36:28.383Z,41.32
2022-09-30T21:39:01.387Z,40.77
2022-09-30T21:41:28.706Z,41.83
2022-09-30T21:43:55.899Z,41.19
2022-09-30T21:46:23.381Z,41.55
2022-09-30T21:48:50.672Z,41.75
2022-09-30T21:51:20.340Z,41.59
2022-09-30T21:53:48.793Z,41.37
2022-09-30T21:56:15.500Z,41.64
2022-09-30T21:58:42.340Z,42.79
2022-09-30T22:01:10.324Z,42.44
2022-09-30T22:03:40.656Z,42.75
2022-09-30T22:06:09.224Z,42.78
2022-09-30T22:08:40.348Z,43.42
2022-09-30T22:11:16.130Z,43.02
2022-09-30T22:13:44.653Z,43.24
2022-09-30T22:16:15.253Z,43.47
2022-09-30T22:18:43.081Z,42.68
2022-09-30T22:21:12.526Z,43.47
2022-09-30T22:23:39.698Z,44.52
2022-09-30T22:26:25.426Z,44.53
2022-09-30T22:29:03.504Z,43.94
2022-09-30T22:31:32.441Z,44.63
2022-09-30T22:34:20.805Z,44.66
2022-09-30T22:37:06.857Z,44.25
2022-09-30T22:39:34.069Z,44.87
2022-09-30T22:42:01.512Z,44.68
2022-09-30T22:44:32.883Z,44.01
2022-09-30T22:47:00.310Z,44.72
2022-09-30T22:49:37.171Z,44.63
2022-09-30T22:52:04.078Z,44.87
2022-09-30T22:54:30.962Z,45.37
2022-09-30T22:56:59.449Z,45.12
2022-09-30T22:59:27.153Z,45.36
2022-09-30T23:01:55.481Z,45.38
2022-09-30T23:04:22.497Z,45.03
2022-09-30T23:06:55.333Z,45.44
2022-09-30T23:09:22.790Z,45.22
2022-09-30T23:11:53.619Z,45.39
2022-09-30T23:14:21.643Z,45.65
2022-09-30T23:16:49.072Z,45.92
2022-09-30T23:19:15.909Z,45.66
2022-09-30T23:21:42.838Z,45.28
2022-09-30T23:24:09.853Z,45.25
2022-09-30T23:26:37.144Z,45.31
2022-09-30T23:29:10.342Z,45.53
2022-09-30T23:31:38.000Z,45.38
2022-09-30T23:34:05.804Z,46.93
2022-09-30T23:36:35.612Z,47.91
2022-09-30T23:39:08.233Z,47.23
2022-09-30T23:41:35.968Z,46.53
2022-09-30T23:44:04.351Z,49.99
2022-09-30T23:46:31.604Z,47.84
2022-09-30T23:48:58.392Z,47.76
2022-09-30T23:51:25.252Z,48.90
2022-09-30T23:53:52.036Z,48.08
2022-09-30T23:56:19.369Z,47.97
2022-09-30T23:58:46.861Z,47.32
